Time;durP1;ratioP1;P1;durP2;ratioP2;P2;SDS_P1;SDS_P2;PMS_P1;PMS_P2;Temp;Humidity;BMP_temperature;BMP_pressure;BME280_temperature;BME280_humidity;BME280_pressure;Samples;Min_cycle;Max_cycle;Signal;HPM_P1;HPM_P2
2023/01/22 00:00:14;;;;;;;12.23;6.85;;;-1.10;99.90;;;;;;5086902;28;20055;-31
2023/01/22 00:02:39;;;;;;;7.30;5.13;;;-1.20;99.90;;;;;;5099226;28;20035;-34
2023/01/22 00:05:06;;;;;;;7.90;5.00;;;-1.20;99.90;;;;;;5087112;28;20450;-32
2023/01/22 00:07:32;;;;;;;10.07;5.45;;;-1.20;99.90;;;;;;5097777;28;20044;-31
2023/01/22 00:09:58;;;;;;;10.82;5.72;;;-1.20;99.90;;;;;;5087861;28;20042;-32
2023/01/22 00:12:24;;;;;;;5.38;3.13;;;-1.20;99.90;;;;;;5090270;28;20034;-32
2023/01/22 00:14:50;;;;;;;9.40;5.45;;;-1.20;99.90;;;;;;5094974;28;20174;-35
2023/01/22 00:17:16;;;;;;;4.38;3.67;;;-1.20;99.90;;;;;;5094303;28;20054;-32
2023/01/22 00:19:42;;;;;;;10.68;5.45;;;-1.20;99.90;;;;;;5092067;28;20028;-32
2023/01/22 00:22:11;;;;;;;4.93;4.43;;;-1.30;99.90;;;;;;5094269;28;20103;-34
2023/01/22 00:24:38;;;;;;;;;;;-1.30;99.90;;;;;;5096954;28;20028;-32
2023/01/22 00:27:04;;;;;;;8.43;5.53;;;-1.20;99.90;;;;;;5096426;28;19947;-32
2023/01/22 00:29:30;;;;;;;7.65;6.05;;;-1.20;99.90;;;;;;5091743;28;20060;-35
2023/01/22 00:31:55;;;;;;;6.40;4.68;;;-1.10;99.90;;;;;;5074670;28;20028;-35
2023/01/22 00:34:21;;;;;;;9.23;4.88;;;-1.10;99.90;;;;;;5098493;28;20035;-35
2023/01/22 00:36:46;;;;;;;13.13;6.55;;;-1.20;99.90;;;;;;5091360;28;20032;-36
2023/01/22 00:39:12;;;;;;;10.32;5.60;;;-1.20;99.90;;;;;;5095453;28;20082;-37
2023/01/22 00:41:38;;;;;;;10.48;5.95;;;-1.20;99.90;;;;;;5097100;28;20389;-36
2023/01/22 00:44:03;;;;;;;9.32;5.72;;;-1.20;99.90;;;;;;5096479;28;20449;-32
2023/01/22 00:46:29;;;;;;;11.52;6.10;;;-1.20;99.90;;;;;;5090265;28;20029;-35
2023/01/22 00:48:54;;;;;;;9.95;6.15;;;-1.10;99.90;;;;;;5093569;28;20024;-33
2023/01/22 00:51:20;;;;;;;10.13;5.68;;;-1.00;99.90;;;;;;5091097;28;20067;-34
2023/01/22 00:53:46;;;;;;;11.18;6.40;;;-1.00;99.90;;;;;;5093822;28;20031;-32
2023/01/22 00:56:13;;;;;;;10.85;6.43;;;-1.00;99.90;;;;;;5093356;28;20028;-32
2023/01/22 00:58:40;;;;;;;18.05;4.60;;;-1.00;99.90;;;;;;5089199;28;20034;-32
2023/01/22 01:01:06;;;;;;;8.57;3.60;;;-1.00;99.90;;;;;;5093629;28;20055;-33
2023/01/22 01:03:33;;;;;;;8.68;5.65;;;-1.20;99.90;;;;;;5091608;28;20111;-34
2023/01/22 01:06:17;;;;;;;7.18;5.43;;;-1.20;99.90;;;;;;5096996;28;20439;-33
2023/01/22 01:08:43;;;;;;;7.05;4.28;;;-1.20;99.90;;;;;;5091932;28;20071;-32
2023/01/22 01:11:21;;;;;;;7.00;6.25;;;-1.20;99.90;;;;;;5087913;28;20074;-32
2023/01/22 01:13:47;;;;;;;10.85;5.78;;;-1.30;99.90;;;;;;5092652;28;20020;-32
2023/01/22 01:16:15;;;;;;;6.00;4.82;;;-1.20;99.90;;;;;;5096308;28;20103;-34
2023/01/22 01:18:41;;;;;;;6.70;4.15;;;-1.10;99.90;;;;;;5091789;28;20028;-37
2023/01/22 01:21:07;;;;;;;13.27;4.78;;;-1.20;99.90;;;;;;5093298;28;20032;-31
2023/01/22 01:23:34;;;;;;;11.07;5.68;;;-1.30;99.90;;;;;;5090995;28;20494;-33
2023/01/22 01:26:07;;;;;;;9.23;5.32;;;-1.20;99.90;;;;;;5093192;28;20504;-31
2023/01/22 01:28:37;;;;;;;10.50;5.90;;;-1.20;99.90;;;;;;5085136;28;20048;-33
2023/01/22 01:31:08;;;;;;;13.25;6.60;;;-1.10;99.90;;;;;;5088478;28;20489;-34
2023/01/22 01:33:34;;;;;;;10.52;5.47;;;-1.10;99.90;;;;;;5078950;28;20052;-32
2023/01/22 01:36:01;;;;;;;15.05;6.57;;;-1.00;99.90;;;;;;5099303;28;20070;-33
2023/01/22 01:38:26;;;;;;;3.53;3.13;;;-1.00;99.90;;;;;;5087567;28;20040;-32
2023/01/22 01:40:52;;;;;;;6.22;4.32;;;-1.00;99.90;;;;;;5094940;28;20473;-32
2023/01/22 01:43:18;;;;;;;8.85;4.93;;;-1.10;99.90;;;;;;5090953;28;20476;-32
2023/01/22 01:45:44;;;;;;;12.75;5.78;;;-1.10;99.90;;;;;;5095450;28;20058;-32
2023/01/22 01:48:30;;;;;;;9.55;5.35;;;-1.10;99.90;;;;;;5090012;28;20429;-31
2023/01/22 01:50:58;;;;;;;9.00;6.72;;;-1.00;99.90;;;;;;5093826;28;20426;-36
2023/01/22 01:53:24;;;;;;;8.02;6.07;;;-1.00;99.90;;;;;;5089271;28;20024;-33
2023/01/22 01:55:51;;;;;;;10.35;6.53;;;-1.00;99.90;;;;;;5097371;28;20069;-33
2023/01/22 01:58:21;;;;;;;9.73;6.13;;;-1.00;99.90;;;;;;5092009;28;20028;-32
2023/01/22 02:00:56;;;;;;;7.28;5.20;;;-0.90;99.90;;;;;;5089607;28;20032;-32
2023/01/22 02:03:22;;;;;;;13.52;5.38;;;-0.90;99.90;;;;;;5063554;28;20032;-32
2023/01/22 02:05:48;;;;;;;12.55;6.68;;;-0.90;99.90;;;;;;5074001;28;20039;-32
2023/01/22 02:08:14;;;;;;;8.23;5.88;;;-0.80;99.90;;;;;;5086764;28;20390;-34
2023/01/22 02:10:40;;;;;;;9.05;6.00;;;-0.80;99.90;;;;;;5078669;28;20058;-32
2023/01/22 02:13:14;;;;;;;11.32;6.55;;;-0.80;99.90;;;;;;5092878;28;20078;-33
2023/01/22 02:15:41;;;;;;;6.55;5.20;;;-0.80;99.90;;;;;;5091204;28;20028;-33
2023/01/22 02:18:07;;;;;;;11.05;7.13;;;-0.80;99.90;;;;;;5090475;28;20077;-33
2023/01/22 02:20:39;;;;;;;8.38;4.70;;;-0.80;99.90;;;;;;5096118;28;20035;-31
2023/01/22 02:23:06;;;;;;;9.60;6.45;;;-0.80;99.90;;;;;;5090546;28;20079;-31
2023/01/22 02:25:35;;;;;;;8.95;4.90;;;-0.80;99.90;;;;;;5091555;28;20029;-32
2023/01/22 02:28:00;;;;;;;9.40;5.13;;;-0.90;99.90;;;;;;5096238;28;20501;-32
2023/01/22 02:30:26;;;;;;;12.90;6.57;;;-1.00;99.90;;;;;;5088134;28;20067;-33
2023/01/22 02:32:52;;;;;;;7.07;4.97;;;-1.00;99.90;;;;;;5089526;28;20130;-32
2023/01/22 02:35:17;;;;;;;7.97;5.63;;;-1.00;99.90;;;;;;5080459;28;20522;-31
2023/01/22 02:37:43;;;;;;;8.48;5.65;;;-1.10;99.90;;;;;;5095543;28;20081;-34
2023/01/22 02:40:09;;;;;;;7.38;5.50;;;-1.10;99.90;;;;;;5096485;28;20055;-32
2023/01/22 02:42:35;;;;;;;6.38;5.18;;;-1.10;99.90;;;;;;5087783;28;20031;-31
2023/01/22 02:45:00;;;;;;;7.30;6.15;;;-1.10;99.90;;;;;;5089190;28;20028;-32
2023/01/22 02:47:26;;;;;;;7.93;5.00;;;-1.10;99.90;;;;;;5090235;28;20028;-34
2023/01/22 02:49:51;;;;;;;9.38;5.93;;;-1.10;99.90;;;;;;5087123;28;20514;-34
2023/01/22 02:52:17;;;;;;;13.45;6.38;;;-1.10;99.90;;;;;;5096167;28;20034;-34
2023/01/22 02:54:43;;;;;;;9.45;6.30;;;-1.00;99.90;;;;;;5096553;28;20031;-31
2023/01/22 02:57:08;;;;;;;12.00;5.85;;;-1.00;99.90;;;;;;5096780;28;20032;-33
2023/01/22 02:59:34;;;;;;;9.68;6.43;;;-0.90;99.90;;;;;;5089451;28;20532;-33
2023/01/22 03:01:59;;;;;;;7.82;6.35;;;-0.90;99.90;;;;;;5096045;28;20031;-32
2023/01/22 03:04:26;;;;;;;10.50;5.28;;;-0.90;99.90;;;;;;5091177;28;20024;-31
2023/01/22 03:06:51;;;;;;;11.80;6.40;;;-0.80;99.90;;;;;;5092717;28;20028;-33
2023/01/22 03:09:17;;;;;;;10.48;6.43;;;-0.80;99.90;;;;;;5075527;28;20329;-32
2023/01/22 03:11:45;;;;;;;8.02;5.28;;;-0.80;99.90;;;;;;5091620;28;20028;-33
2023/01/22 03:22:25;;;;;;;13.63;7.63;;;-0.80;99.90;;;;;;5085991;28;20446;-34
2023/01/22 03:24:51;;;;;;;8.07;5.60;;;-0.80;99.90;;;;;;5095919;28;20111;-33
2023/01/22 03:27:19;;;;;;;13.25;5.88;;;-0.90;99.90;;;;;;5097171;28;20063;-33
2023/01/22 03:29:45;;;;;;;10.70;6.28;;;-0.90;99.90;;;;;;5094007;28;20126;-32
2023/01/22 03:32:11;;;;;;;13.38;6.68;;;-0.90;99.90;;;;;;5086726;28;20119;-36
2023/01/22 03:34:37;;;;;;;8.43;6.47;;;-0.90;99.90;;;;;;5087537;28;20400;-39
2023/01/22 03:37:04;;;;;;;11.95;5.60;;;-0.90;99.90;;;;;;5079618;28;20107;-32
2023/01/22 03:39:30;;;;;;;10.50;5.90;;;-1.00;99.90;;;;;;5093008;28;20051;-32
2023/01/22 03:41:56;;;;;;;12.07;7.47;;;-1.00;99.90;;;;;;5095978;28;20050;-34
2023/01/22 03:44:22;;;;;;;9.02;5.85;;;-1.00;99.90;;;;;;5094803;28;20031;-33
2023/01/22 03:46:48;;;;;;;10.60;5.20;;;-1.00;99.90;;;;;;5073745;28;20995;-31
2023/01/22 03:49:14;;;;;;;8.10;5.22;;;-1.00;99.90;;;;;;5092640;28;20369;-32
2023/01/22 03:51:41;;;;;;;11.48;5.88;;;-1.00;99.90;;;;;;5092821;28;20381;-34
2023/01/22 03:54:06;;;;;;;10.55;6.35;;;-1.00;99.90;;;;;;5093240;28;20023;-32
2023/01/22 03:56:32;;;;;;;12.25;6.38;;;-1.00;99.90;;;;;;5096049;28;20089;-31
2023/01/22 03:58:58;;;;;;;9.60;5.22;;;-1.10;99.90;;;;;;5095150;28;20028;-32
2023/01/22 04:01:25;;;;;;;11.50;6.57;;;-1.10;99.90;;;;;;5075889;28;20206;-32
2023/01/22 04:03:51;;;;;;;11.82;5.95;;;-1.10;99.90;;;;;;5094213;28;20032;-34
2023/01/22 04:06:18;;;;;;;14.00;7.00;;;-1.10;99.90;;;;;;5088037;28;20480;-32
2023/01/22 04:08:46;;;;;;;11.63;7.03;;;-1.20;99.90;;;;;;5092556;28;20048;-31
2023/01/22 04:11:12;;;;;;;8.70;5.78;;;-1.20;99.90;;;;;;5093362;28;20330;-32
2023/01/22 04:13:39;;;;;;;9.75;6.18;;;-1.30;99.90;;;;;;5092936;28;20388;-35
2023/01/22 04:16:06;;;;;;;13.57;7.43;;;-1.30;99.90;;;;;;5095147;28;20028;-33
2023/01/22 04:18:32;;;;;;;12.38;7.22;;;-1.30;99.90;;;;;;5097192;28;20031;-33
2023/01/22 04:20:57;;;;;;;9.55;6.18;;;-1.30;99.90;;;;;;5093635;28;20275;-33
2023/01/22 04:23:24;;;;;;;10.35;6.28;;;-1.30;99.90;;;;;;5090534;28;20427;-31
2023/01/22 04:25:50;;;;;;;12.50;7.60;;;-1.30;99.90;;;;;;5093747;28;20036;-32
2023/01/22 04:28:16;;;;;;;12.98;6.07;;;-1.30;99.90;;;;;;5094433;28;20081;-33
2023/01/22 04:30:44;;;;;;;8.23;5.50;;;-1.30;99.90;;;;;;5092690;28;20107;-32
2023/01/22 04:33:10;;;;;;;8.57;5.75;;;-1.30;99.90;;;;;;5091467;28;20020;-32
2023/01/22 04:35:37;;;;;;;10.07;6.10;;;-1.20;99.90;;;;;;5092246;28;20032;-31
2023/01/22 04:38:04;;;;;;;9.68;5.90;;;-1.30;99.90;;;;;;5097785;28;20500;-34
2023/01/22 04:40:30;;;;;;;10.10;6.18;;;-1.20;99.90;;;;;;5095403;28;20082;-32
2023/01/22 04:43:00;;;;;;;14.25;7.25;;;-1.20;99.90;;;;;;5093528;28;20063;-35
2023/01/22 04:45:26;;;;;;;9.35;6.00;;;-1.20;99.90;;;;;;5093954;28;20424;-32
2023/01/22 04:47:51;;;;;;;12.90;6.90;;;-1.20;99.90;;;;;;5090897;28;20031;-36
2023/01/22 04:50:22;;;;;;;12.60;7.13;;;-1.10;99.90;;;;;;5069699;28;20484;-32
2023/01/22 04:52:50;;;;;;;12.15;6.40;;;-1.20;99.90;;;;;;5097006;28;20065;-34
2023/01/22 04:55:16;;;;;;;14.30;7.53;;;-1.20;99.90;;;;;;5088452;28;20032;-32
2023/01/22 04:57:41;;;;;;;11.50;6.65;;;-1.20;99.90;;;;;;5095369;28;20020;-31
2023/01/22 05:00:09;;;;;;;10.77;5.88;;;-1.20;99.90;;;;;;5088102;28;20105;-32
2023/01/22 05:02:34;;;;;;;11.20;6.65;;;-1.20;99.90;;;;;;5090399;28;20045;-32
2023/01/22 05:05:00;;;;;;;10.43;6.70;;;-1.20;99.90;;;;;;5095111;28;20032;-34
2023/01/22 05:07:25;;;;;;;12.57;6.55;;;-1.30;99.90;;;;;;5085949;28;20035;-33
2023/01/22 05:09:51;;;;;;;14.30;6.72;;;-1.30;99.90;;;;;;5094620;28;20381;-31
2023/01/22 05:12:19;;;;;;;15.80;6.75;;;-1.30;99.90;;;;;;5089484;28;20032;-34
2023/01/22 05:14:44;;;;;;;12.18;6.85;;;-1.30;99.90;;;;;;5091882;28;20378;-32
2023/01/22 05:17:10;;;;;;;11.40;6.45;;;-1.30;99.90;;;;;;5093755;28;20034;-32
2023/01/22 05:19:36;;;;;;;15.00;7.60;;;-1.30;99.90;;;;;;5093609;28;21142;-34
2023/01/22 05:22:03;;;;;;;12.55;6.80;;;-1.30;99.90;;;;;;5096730;28;20499;-32
2023/01/22 05:24:28;;;;;;;11.18;6.28;;;-1.40;99.90;;;;;;5079772;28;20036;-32
2023/01/22 05:26:56;;;;;;;12.93;6.68;;;-1.40;99.90;;;;;;5086456;28;20612;-32
2023/01/22 05:29:24;;;;;;;15.05;7.82;;;-1.40;99.90;;;;;;5092333;28;20115;-34
2023/01/22 05:31:51;;;;;;;11.50;6.78;;;-1.40;99.90;;;;;;5095158;28;20374;-33
2023/01/22 05:34:17;;;;;;;10.45;6.13;;;-1.40;99.90;;;;;;5088109;28;20536;-33
2023/01/22 05:36:42;;;;;;;9.73;5.75;;;-1.30;99.90;;;;;;5091524;28;20036;-32
2023/01/22 05:39:08;;;;;;;9.43;5.60;;;-1.30;99.90;;;;;;5098026;28;20123;-33
2023/01/22 05:41:34;;;;;;;10.93;6.68;;;-1.30;99.90;;;;;;5093075;28;20482;-34
2023/01/22 05:44:04;;;;;;;9.80;6.88;;;-1.30;99.90;;;;;;5083035;28;20036;-33
2023/01/22 05:46:30;;;;;;;9.23;5.75;;;-1.20;99.90;;;;;;5097764;28;20031;-32
2023/01/22 05:48:57;;;;;;;10.65;6.50;;;-1.20;99.90;;;;;;5086699;28;20119;-34
2023/01/22 05:51:24;;;;;;;10.68;5.80;;;-1.10;99.90;;;;;;5067973;28;20158;-32
2023/01/22 05:53:49;;;;;;;12.07;6.00;;;-1.10;99.90;;;;;;5065247;28;20098;-34
2023/01/22 05:56:15;;;;;;;13.48;7.68;;;-1.00;99.90;;;;;;5063962;28;20032;-32
2023/01/22 05:58:41;;;;;;;9.48;5.88;;;-1.00;99.90;;;;;;5065056;28;20077;-32
2023/01/22 06:01:07;;;;;;;9.75;5.22;;;-1.00;99.90;;;;;;5064817;28;20547;-33
2023/01/22 06:03:33;;;;;;;11.20;6.35;;;-1.00;99.90;;;;;;5068886;28;20436;-35
2023/01/22 06:06:00;;;;;;;11.55;6.53;;;-0.90;99.90;;;;;;5064119;28;20143;-36
2023/01/22 06:08:26;;;;;;;9.52;6.07;;;-0.90;99.90;;;;;;5064333;28;20094;-35
2023/01/22 06:11:02;;;;;;;9.73;6.40;;;-0.90;99.90;;;;;;5064268;28;20181;-38
2023/01/22 06:13:29;;;;;;;9.25;6.63;;;-0.80;99.90;;;;;;5066233;28;20070;-33
2023/01/22 06:15:54;;;;;;;11.30;7.00;;;-0.80;99.90;;;;;;5064574;28;20021;-33
2023/01/22 06:18:22;;;;;;;12.70;6.68;;;-0.80;99.90;;;;;;5064463;28;20067;-34
2023/01/22 06:20:47;;;;;;;7.90;6.18;;;-0.80;99.90;;;;;;5064402;28;20548;-34
2023/01/22 06:23:13;;;;;;;10.73;6.00;;;-0.80;99.90;;;;;;5066211;28;20098;-35
2023/01/22 06:25:39;;;;;;;12.50;7.10;;;-0.80;99.90;;;;;;5063262;28;20035;-35
2023/01/22 06:28:05;;;;;;;11.52;5.85;;;-0.80;99.90;;;;;;5064915;28;20042;-34
2023/01/22 06:30:30;;;;;;;13.35;7.32;;;-0.80;99.90;;;;;;5064337;28;20559;-35
2023/01/22 06:32:56;;;;;;;8.75;5.75;;;-0.70;99.90;;;;;;5066169;28;20032;-33
2023/01/22 06:35:22;;;;;;;12.80;7.22;;;-0.80;99.90;;;;;;5062848;28;20032;-34
2023/01/22 06:37:47;;;;;;;7.03;5.38;;;-0.70;99.90;;;;;;5064692;28;20069;-33
2023/01/22 06:40:13;;;;;;;9.07;6.22;;;-0.80;99.90;;;;;;5064914;28;20299;-36
2023/01/22 06:42:40;;;;;;;10.65;5.63;;;-0.70;99.90;;;;;;5046149;28;20023;-32
2023/01/22 06:45:06;;;;;;;10.50;7.32;;;-0.70;99.90;;;;;;5062694;28;20051;-33
2023/01/22 06:47:32;;;;;;;12.57;6.38;;;-0.70;99.90;;;;;;5065458;28;20480;-34
2023/01/22 06:49:58;;;;;;;9.57;6.47;;;-0.70;99.90;;;;;;5064154;28;20028;-32
2023/01/22 06:52:23;;;;;;;8.55;5.45;;;-0.70;99.90;;;;;;5070906;28;20110;-32
2023/01/22 06:54:49;;;;;;;13.52;6.35;;;-0.70;99.90;;;;;;5088058;28;20047;-34
2023/01/22 06:57:15;;;;;;;9.95;5.63;;;-0.70;99.90;;;;;;5090413;28;20032;-33
2023/01/22 06:59:40;;;;;;;12.55;6.55;;;-0.80;99.90;;;;;;5092187;28;20020;-33
2023/01/22 07:02:06;;;;;;;9.13;6.53;;;-0.80;99.90;;;;;;5091073;28;20024;-32
2023/01/22 07:04:32;;;;;;;12.27;6.82;;;-0.80;99.90;;;;;;5087618;28;20520;-31
2023/01/22 07:06:57;;;;;;;9.65;5.90;;;-1.00;99.90;;;;;;5087683;28;20035;-33
2023/01/22 07:09:23;;;;;;;9.43;5.30;;;-0.90;99.90;;;;;;5096290;28;20131;-32
2023/01/22 07:11:49;;;;;;;9.77;6.03;;;-0.90;99.90;;;;;;5091477;28;20036;-35
2023/01/22 07:14:14;;;;;;;7.32;5.03;;;-0.90;99.90;;;;;;5087732;28;20496;-32
2023/01/22 07:16:40;;;;;;;11.10;6.03;;;-1.00;99.90;;;;;;5093854;28;20051;-33
2023/01/22 07:19:05;;;;;;;9.55;5.85;;;-0.90;99.90;;;;;;5075258;28;20016;-32
2023/01/22 07:21:31;;;;;;;10.93;5.78;;;-1.00;99.90;;;;;;5095362;28;20511;-33
2023/01/22 07:23:57;;;;;;;14.27;6.03;;;-1.00;99.90;;;;;;5090577;28;20028;-33
2023/01/22 07:26:22;;;;;;;10.27;5.75;;;-1.10;99.90;;;;;;5092440;28;20028;-32
2023/01/22 07:28:48;;;;;;;15.13;6.55;;;-1.00;99.90;;;;;;5097654;28;20062;-32
2023/01/22 07:31:14;;;;;;;9.48;6.68;;;-1.00;99.90;;;;;;5099611;28;20070;-32
2023/01/22 07:33:40;;;;;;;9.90;6.05;;;-1.00;99.90;;;;;;5095345;28;20502;-32
2023/01/22 07:36:06;;;;;;;15.43;6.35;;;-1.00;99.90;;;;;;5097700;28;20508;-34
2023/01/22 07:38:31;;;;;;;7.95;5.35;;;-0.90;99.90;;;;;;5094360;28;20027;-32
2023/01/22 07:41:01;;;;;;;11.20;7.13;;;-0.90;99.90;;;;;;5096944;28;20024;-36
2023/01/22 07:43:27;;;;;;;9.70;4.30;;;-0.90;99.90;;;;;;5095309;28;20034;-34
2023/01/22 07:45:53;;;;;;;13.40;6.90;;;-0.90;99.90;;;;;;5089852;28;20469;-31
2023/01/22 07:48:18;;;;;;;12.38;5.75;;;-1.10;99.90;;;;;;5095560;28;20028;-33
2023/01/22 07:50:44;;;;;;;10.50;5.65;;;-1.00;99.90;;;;;;5099839;28;20031;-32
2023/01/22 07:53:10;;;;;;;7.78;4.50;;;-1.10;99.90;;;;;;5091660;28;20043;-31
2023/01/22 07:55:36;;;;;;;10.52;6.55;;;-1.10;99.90;;;;;;5099266;28;20031;-33
2023/01/22 07:58:05;;;;;;;12.07;5.75;;;-1.20;99.90;;;;;;5093673;28;20028;-32
2023/01/22 08:00:33;;;;;;;7.03;5.40;;;-1.30;99.90;;;;;;5099662;28;20046;-32
2023/01/22 08:02:59;;;;;;;9.07;5.72;;;-1.30;99.90;;;;;;5094145;28;20480;-35
2023/01/22 08:05:25;;;;;;;7.50;5.40;;;-1.40;99.90;;;;;;5091889;28;20032;-34
2023/01/22 08:07:51;;;;;;;6.75;4.82;;;-1.40;99.90;;;;;;5091106;28;20052;-33
2023/01/22 08:10:17;;;;;;;11.10;6.90;;;-1.40;99.90;;;;;;5079726;28;20392;-32
2023/01/22 08:12:42;;;;;;;13.02;6.60;;;-1.30;99.90;;;;;;5098908;28;20070;-34
2023/01/22 08:15:09;;;;;;;8.57;5.45;;;-1.20;99.90;;;;;;5093134;28;20051;-32
2023/01/22 08:17:35;;;;;;;8.50;5.78;;;-1.20;99.90;;;;;;5088936;28;20008;-35
2023/01/22 08:20:01;;;;;;;10.30;6.82;;;-1.20;99.90;;;;;;5084652;28;20154;-32
2023/01/22 08:22:26;;;;;;;12.27;6.10;;;-1.20;99.90;;;;;;5095240;28;20020;-31
2023/01/22 08:24:53;;;;;;;12.88;6.60;;;-1.10;99.90;;;;;;5073036;28;20029;-32
2023/01/22 08:27:19;;;;;;;10.52;5.70;;;-1.00;99.90;;;;;;5091653;28;20121;-33
2023/01/22 08:29:45;;;;;;;11.30;5.97;;;-1.00;99.90;;;;;;5100438;28;20130;-32
2023/01/22 08:32:10;;;;;;;10.82;6.30;;;-0.90;99.90;;;;;;5096143;28;20115;-33
2023/01/22 08:34:36;;;;;;;11.13;6.53;;;-0.90;99.90;;;;;;5090668;28;20481;-33
2023/01/22 08:37:01;;;;;;;13.65;6.97;;;-1.00;99.90;;;;;;5092731;28;20122;-32
2023/01/22 08:39:27;;;;;;;14.43;7.50;;;-0.90;99.90;;;;;;5093309;28;20020;-33
2023/01/22 08:41:56;;;;;;;10.80;7.05;;;-0.90;99.90;;;;;;5082112;28;21522;-32
2023/01/22 08:44:22;;;;;;;10.32;5.93;;;-0.90;99.90;;;;;;5086168;28;20058;-33
2023/01/22 08:46:48;;;;;;;16.75;6.93;;;-0.80;99.90;;;;;;5085000;28;20028;-32
2023/01/22 08:49:14;;;;;;;9.88;5.38;;;-0.80;99.90;;;;;;5082092;28;20550;-32
2023/01/22 08:51:39;;;;;;;17.30;7.95;;;-0.90;99.90;;;;;;5086365;28;20017;-32
2023/01/22 08:54:05;;;;;;;16.08;8.30;;;-0.90;99.90;;;;;;5091565;28;20028;-32
2023/01/22 08:56:31;;;;;;;11.00;6.55;;;-0.80;99.90;;;;;;5089960;28;20399;-34
2023/01/22 08:58:59;;;;;;;19.10;9.02;;;-0.80;99.90;;;;;;5089792;28;20074;-35
2023/01/22 09:01:25;;;;;;;18.47;7.60;;;-0.90;99.90;;;;;;5094808;28;20032;-32
2023/01/22 09:03:50;;;;;;;13.93;6.97;;;-1.00;99.90;;;;;;5086563;28;20286;-32
2023/01/22 09:06:17;;;;;;;12.25;6.70;;;-0.90;99.90;;;;;;5080947;28;20717;-34
2023/01/22 09:08:42;;;;;;;14.43;7.93;;;-0.80;99.90;;;;;;5062180;28;20058;-31
2023/01/22 09:11:08;;;;;;;16.70;7.68;;;-0.80;99.90;;;;;;5090088;28;20024;-32
2023/01/22 09:13:34;;;;;;;12.57;7.78;;;-0.70;99.90;;;;;;5084626;28;20118;-33
2023/01/22 09:15:59;;;;;;;14.38;7.75;;;-0.70;99.90;;;;;;5089139;28;20029;-34
2023/01/22 09:18:25;;;;;;;16.15;7.82;;;-0.70;99.90;;;;;;5069389;28;20456;-35
2023/01/22 09:20:51;;;;;;;18.58;10.20;;;-0.60;99.90;;;;;;5089811;28;20119;-31
2023/01/22 09:23:16;;;;;;;17.33;8.73;;;-0.60;99.90;;;;;;5099536;28;20469;-32
2023/01/22 09:25:42;;;;;;;16.98;8.65;;;-0.60;99.90;;;;;;5083334;28;20028;-35
2023/01/22 09:28:10;;;;;;;18.00;8.98;;;-0.70;99.90;;;;;;5083427;28;20036;-35
2023/01/22 09:30:38;;;;;;;;;;;-0.90;99.90;;;;;;5086138;28;20445;-35
2023/01/22 09:33:04;;;;;;;7.05;4.25;;;-0.80;99.90;;;;;;5090632;28;20297;-33
2023/01/22 09:35:29;;;;;;;15.18;8.10;;;-0.70;99.90;;;;;;5079763;28;20023;-32
2023/01/22 09:37:55;;;;;;;10.93;6.28;;;-0.70;99.90;;;;;;5094060;28;20020;-31
2023/01/22 09:40:20;;;;;;;9.63;6.55;;;-0.70;99.90;;;;;;5072936;28;20052;-33
2023/01/22 09:42:46;;;;;;;8.38;6.50;;;-0.70;99.90;;;;;;5094323;28;20389;-34
2023/01/22 09:45:14;;;;;;;7.72;4.75;;;-0.60;99.90;;;;;;5090396;28;20036;-32
2023/01/22 09:47:43;;;;;;;10.23;5.53;;;-0.60;99.90;;;;;;5086306;28;20028;-32
2023/01/22 09:50:25;;;;;;;9.52;5.53;;;-0.60;99.90;;;;;;5081969;28;20318;-34
2023/01/22 09:52:53;;;;;;;8.88;4.97;;;-0.60;99.90;;;;;;5088059;28;20396;-34
2023/01/22 09:55:21;;;;;;;7.50;4.95;;;-0.60;99.90;;;;;;5087319;28;20729;-33
2023/01/22 09:57:50;;;;;;;8.60;5.28;;;-0.60;99.90;;;;;;5081577;28;20039;-31
2023/01/22 10:00:19;;;;;;;10.05;5.65;;;-0.50;99.90;;;;;;5083373;28;20032;-33
2023/01/22 10:02:56;;;;;;;7.88;5.13;;;-0.40;99.90;;;;;;5084007;28;20704;-33
2023/01/22 10:05:33;;;;;;;7.72;4.88;;;-0.40;99.90;;;;;;5084966;28;20060;-31
2023/01/22 10:08:31;;;;;;;8.10;4.88;;;-0.30;99.90;;;;;;5084959;28;20052;-32
2023/01/22 10:10:59;;;;;;;10.52;5.25;;;-0.40;99.90;;;;;;5089291;28;20036;-32
2023/01/22 10:13:32;;;;;;;7.60;5.10;;;-0.50;99.90;;;;;;5086846;28;20048;-34
2023/01/22 10:15:58;;;;;;;7.47;5.43;;;-0.40;99.90;;;;;;5092532;28;20372;-35
2023/01/22 10:18:40;;;;;;;9.15;5.50;;;-0.40;99.90;;;;;;5087449;28;20035;-32
2023/01/22 10:21:17;;;;;;;5.90;4.47;;;-0.40;99.90;;;;;;5092014;28;20434;-31
2023/01/22 10:23:42;;;;;;;14.05;8.68;;;-0.50;99.90;;;;;;5089607;28;20028;-32
2023/01/22 10:26:23;;;;;;;57.72;28.88;;;-0.40;99.90;;;;;;5095489;28;20101;-32
2023/01/22 10:28:51;;;;;;;14.75;7.32;;;-0.40;99.90;;;;;;5085165;28;20068;-32
2023/01/22 10:31:33;;;;;;;10.52;6.20;;;-0.40;99.90;;;;;;5091181;28;20114;-32
2023/01/22 10:34:09;;;;;;;8.65;5.82;;;-0.40;99.90;;;;;;5093467;28;20288;-32
2023/01/22 10:36:34;;;;;;;12.05;7.40;;;-0.40;99.90;;;;;;5095216;28;20720;-31
2023/01/22 10:39:12;;;;;;;12.27;7.25;;;-0.40;99.90;;;;;;5082255;28;20035;-32
2023/01/22 10:41:39;;;;;;;10.60;6.70;;;-0.40;99.90;;;;;;5071069;28;20544;-32
2023/01/22 10:44:25;;;;;;;14.10;7.40;;;-0.40;99.90;;;;;;5086705;28;20036;-31
2023/01/22 10:46:53;;;;;;;11.40;7.47;;;-0.50;99.90;;;;;;5089406;28;20032;-32
2023/01/22 10:49:26;;;;;;;12.90;6.72;;;-0.60;99.90;;;;;;5082754;28;20499;-32
2023/01/22 10:51:56;;;;;;;12.32;7.35;;;-0.60;99.90;;;;;;5088848;28;20762;-31
2023/01/22 10:54:42;;;;;;;12.85;7.50;;;-0.60;99.90;;;;;;5078453;28;20429;-31
2023/01/22 10:57:30;;;;;;;15.25;7.85;;;-0.70;99.90;;;;;;5090168;28;20032;-32
2023/01/22 11:00:26;;;;;;;10.02;6.70;;;-0.70;99.90;;;;;;5089254;28;20085;-31
2023/01/22 11:02:52;;;;;;;10.13;6.03;;;-0.70;99.90;;;;;;5083448;28;20039;-32
2023/01/22 11:05:20;;;;;;;15.65;7.43;;;-0.60;99.90;;;;;;5091674;28;20047;-34
2023/01/22 11:07:48;;;;;;;;;;;-0.60;99.90;;;;;;5087505;28;20043;-32
2023/01/22 11:10:26;;;;;;;10.30;6.25;;;-0.70;99.90;;;;;;5090746;28;19908;-31
2023/01/22 11:12:57;;;;;;;13.07;7.07;;;-0.70;99.90;;;;;;5095263;28;20485;-31
2023/01/22 11:15:44;;;;;;;14.95;7.78;;;-0.70;99.90;;;;;;5099108;28;20139;-31
2023/01/22 11:18:29;;;;;;;11.57;7.07;;;-0.70;99.90;;;;;;5090412;28;20027;-30
2023/01/22 11:20:57;;;;;;;12.55;6.60;;;-0.70;99.90;;;;;;5086279;28;20031;-34
2023/01/22 11:23:44;;;;;;;13.10;7.13;;;-0.70;99.90;;;;;;5087802;28;20020;-33
2023/01/22 11:26:47;;;;;;;12.68;7.88;;;-0.70;99.90;;;;;;5091212;28;20046;-34
2023/01/22 11:29:18;;;;;;;15.10;8.02;;;-0.70;99.90;;;;;;5084623;28;20024;-33
2023/01/22 11:32:04;;;;;;;11.32;7.22;;;-0.60;99.90;;;;;;5091856;28;20043;-32
2023/01/22 11:34:53;;;;;;;14.57;8.60;;;-0.60;99.90;;;;;;5096329;28;20485;-31
2023/01/22 11:37:28;;;;;;;9.48;6.25;;;-0.50;99.90;;;;;;5088581;28;20103;-34
2023/01/22 11:40:32;;;;;;;12.10;7.53;;;-0.50;99.90;;;;;;5091985;28;20042;-31
2023/01/22 11:43:09;;;;;;;11.75;7.43;;;-0.50;99.90;;;;;;5091014;28;20409;-32
2023/01/22 11:46:04;;;;;;;14.87;7.90;;;-0.50;99.90;;;;;;5095665;28;20032;-30
2023/01/22 11:48:33;;;;;;;12.57;6.70;;;-0.40;99.90;;;;;;5093734;28;20028;-33
2023/01/22 11:51:07;;;;;;;9.95;6.47;;;-0.40;99.90;;;;;;5086561;28;20044;-32
2023/01/22 11:53:57;;;;;;;15.30;7.97;;;-0.30;99.90;;;;;;5095649;28;20040;-32
2023/01/22 11:56:40;;;;;;;11.77;6.95;;;-0.30;99.90;;;;;;5089620;28;20030;-31
2023/01/22 11:59:20;;;;;;;13.52;7.28;;;-0.20;99.90;;;;;;5090760;28;20021;-33
2023/01/22 12:02:12;;;;;;;11.10;6.60;;;-0.30;99.90;;;;;;5090350;28;20524;-31
2023/01/22 12:04:41;;;;;;;10.55;5.82;;;-0.20;99.90;;;;;;5094106;28;20031;-31
2023/01/22 12:07:12;;;;;;;;;;;-0.20;99.90;;;;;;5096999;28;20421;-36
2023/01/22 12:09:47;;;;;;;12.75;6.50;;;-0.10;99.90;;;;;;5087879;28;20897;-33
2023/01/22 12:12:21;;;;;;;12.35;8.10;;;-0.10;99.90;;;;;;5096418;28;20036;-31
2023/01/22 12:15:12;;;;;;;12.75;6.75;;;-0.10;99.90;;;;;;5097994;28;20111;-32
2023/01/22 12:17:40;;;;;;;9.07;6.22;;;-0.10;99.90;;;;;;5088673;28;20032;-33
2023/01/22 12:20:33;;;;;;;10.85;6.55;;;-0.10;99.90;;;;;;5080253;28;20020;-33
2023/01/22 12:23:32;;;;;;;13.13;6.47;;;-0.10;99.90;;;;;;5087208;28;20032;-32
2023/01/22 12:26:19;;;;;;;9.73;6.78;;;-0.10;99.90;;;;;;5087459;28;20069;-31
2023/01/22 12:28:49;;;;;;;11.73;6.95;;;-0.10;99.90;;;;;;5087365;28;20066;-33
2023/01/22 12:31:32;;;;;;;9.15;6.38;;;-0.10;99.90;;;;;;5092947;28;20028;-32
2023/01/22 12:34:01;;;;;;;8.88;7.13;;;-0.10;99.90;;;;;;5097333;28;20024;-35
2023/01/22 12:36:28;;;;;;;12.75;6.80;;;-0.10;99.90;;;;;;5093927;28;20167;-34
2023/01/22 12:38:59;;;;;;;12.30;7.68;;;-0.10;99.90;;;;;;5099436;28;20016;-31
2023/01/22 12:41:43;;;;;;;11.73;6.50;;;-0.10;99.90;;;;;;5096098;28;20027;-32
2023/01/22 12:44:41;;;;;;;12.23;7.20;;;-0.10;99.90;;;;;;5091208;28;20036;-34
2023/01/22 12:47:48;;;;;;;9.98;6.10;;;-0.10;99.90;;;;;;5097679;28;20055;-32
2023/01/22 12:50:20;;;;;;;11.23;7.50;;;-0.10;99.90;;;;;;5027001;28;20038;-31
2023/01/22 12:53:20;;;;;;;10.43;5.85;;;0.00;99.90;;;;;;5093853;28;20063;-32
2023/01/22 12:56:02;;;;;;;9.38;5.90;;;0.00;99.90;;;;;;5096086;28;20031;-33
2023/01/22 12:58:31;;;;;;;11.20;7.05;;;0.00;99.90;;;;;;5091715;28;20122;-32